Actual water levels and discharges of Vltava river

Vraňany

Date and time (UTC) H (cm) Q (m3/s)
13. 7. 2020 14:00 31 72.1
13. 7. 2020 13:00 9 52
13. 7. 2020 12:00 5 49
13. 7. 2020 11:00 10 53
13. 7. 2020 10:00 10 53
13. 7. 2020 09:00 10 53
13. 7. 2020 08:00 13 56
13. 7. 2020 07:00 15 57
13. 7. 2020 06:00 16 58
13. 7. 2020 05:00 18 60
13. 7. 2020 04:00 28 69
13. 7. 2020 03:00 31 72
13. 7. 2020 02:00 30 71

H - water level, Q - discharge

Praha-Chuchle

Date and time (UTC) H (cm) Q (m3/s)
13. 7. 2020 13:50 48 64
13. 7. 2020 13:00 47 61
13. 7. 2020 12:00 47 61
13. 7. 2020 11:00 47 61
13. 7. 2020 10:00 47 61
13. 7. 2020 09:00 47 61
13. 7. 2020 08:00 46 58
13. 7. 2020 07:00 46 58
13. 7. 2020 06:00 46 58
13. 7. 2020 05:00 46 58
13. 7. 2020 04:00 46 58
13. 7. 2020 03:00 46 58
13. 7. 2020 02:00 46 58
13. 7. 2020 01:00 46 58

H - water level, Q - discharge
more information

VD Vrané nad Vltavou

Date and time (UTC) H (m n. m.) Q (m3/s)
13. 7. 2020 14:00 199.81 0
13. 7. 2020 13:00 199.87 0
13. 7. 2020 12:00 199.91 0
13. 7. 2020 11:00 199.96 0
13. 7. 2020 10:00 200.01 0
13. 7. 2020 09:00 200.02 0
13. 7. 2020 08:00 200.00 0
13. 7. 2020 06:00 200.02 50
13. 7. 2020 05:00 200.03 50
13. 7. 2020 02:00 200.05 50
13. 7. 2020 01:00 200.05 50
12. 7. 2020 23:00 199.96 45
12. 7. 2020 22:00 199.89 45

H - water level, Q - outflow

VD Štěchovice

Date and time (UTC) H (m n. m.) Q (m3/s)
13. 7. 2020 14:00 216.33 0
13. 7. 2020 13:00 216.34 0
13. 7. 2020 12:00 216.35 0
13. 7. 2020 11:00 216.35 0
13. 7. 2020 10:00 216.37 22
13. 7. 2020 09:00 216.49 50
13. 7. 2020 08:00 216.68 22
13. 7. 2020 06:00 216.88 24
13. 7. 2020 05:00 216.97 24
13. 7. 2020 02:00 216.61 24
13. 7. 2020 01:00 216.72 50
12. 7. 2020 23:00 216.88 75
12. 7. 2020 22:00 216.89 75

H - water level, Q - outflow

VD Slapy

Date and time (UTC) H (m n. m.) Q (m3/s)
13. 7. 2020 14:00 269.77 0
13. 7. 2020 13:00 269.78 0
13. 7. 2020 12:00 269.77 0
13. 7. 2020 11:00 269.77 0
13. 7. 2020 10:00 269.77 0
13. 7. 2020 09:00 269.78 0
13. 7. 2020 08:00 269.77 0
13. 7. 2020 06:00 269.77 0
13. 7. 2020 05:00 269.77 73
13. 7. 2020 02:00 269.82 0
13. 7. 2020 01:00 269.82 0
12. 7. 2020 23:00 269.83 63
12. 7. 2020 22:00 269.85 61

H - water level, Q - outflow

VD Kamýk

Date and time (UTC) H (m n. m.) Q (m3/s)
13. 7. 2020 14:00 282.49 -
13. 7. 2020 13:00 282.48 -
13. 7. 2020 12:00 282.49 -
13. 7. 2020 11:00 282.48 -
13. 7. 2020 10:00 282.48 -
13. 7. 2020 09:00 282.48 -
13. 7. 2020 08:00 282.47 -
13. 7. 2020 06:00 282.46 -
13. 7. 2020 05:00 282.47 -
13. 7. 2020 02:00 282.44 -
13. 7. 2020 01:00 282.42 -
12. 7. 2020 23:00 282.46 -
12. 7. 2020 22:00 282.56 -

H - water level, Q - outflow

VD Orlík

Date and time (UTC) H (m n. m.) Q (m3/s)
13. 7. 2020 14:00 349.52 0
13. 7. 2020 13:00 349.52 0
13. 7. 2020 12:00 349.49 0
13. 7. 2020 11:00 349.49 0
13. 7. 2020 10:00 349.47 0
13. 7. 2020 09:00 349.45 0
13. 7. 2020 08:00 349.44 0
13. 7. 2020 06:00 349.42 0
13. 7. 2020 05:00 349.41 0
13. 7. 2020 02:00 349.38 0
13. 7. 2020 01:00 349.37 0
12. 7. 2020 23:00 349.34 0
12. 7. 2020 22:00 349.33 0

H - water level, Q - outflow

VD Kořensko

Date and time (UTC) H (m n. m.) Q (m3/s)
13. 7. 2020 14:00 352.58 94.3
13. 7. 2020 13:00 352.58 94
13. 7. 2020 12:00 352.58 94
13. 7. 2020 11:00 352.56 92
13. 7. 2020 10:00 352.55 101
13. 7. 2020 09:00 352.59 171
13. 7. 2020 08:00 352.62 95
13. 7. 2020 06:00 352.56 49
13. 7. 2020 05:00 352.53 47
13. 7. 2020 02:00 352.57 54
13. 7. 2020 01:00 352.59 80
12. 7. 2020 23:00 352.64 79
12. 7. 2020 22:00 352.63 71

H - water level, Q - outflow

VD Hněvkovice I - přehrada

Date and time (UTC) H (m n. m.) Q (m3/s)
- - -

H - water level, Q - outflow

České Budějovice

Date and time (UTC) H (cm) Q (m3/s)
13. 7. 2020 14:00 107 29.7
13. 7. 2020 13:00 107 30
13. 7. 2020 12:00 106 29
13. 7. 2020 11:00 108 29
13. 7. 2020 10:00 107 31
13. 7. 2020 09:00 107 30
13. 7. 2020 08:00 108 30
13. 7. 2020 07:00 107 29
13. 7. 2020 06:00 107 29
13. 7. 2020 05:00 107 30
13. 7. 2020 04:00 107 29
13. 7. 2020 03:00 107 29
13. 7. 2020 02:00 106 27

H - water level, Q - discharge
more information

Vyšší Brod

Date and time (UTC) H (cm) Q (m3/s)
13. 7. 2020 14:00 111 22.6
13. 7. 2020 13:00 111 23
13. 7. 2020 12:00 110 22
13. 7. 2020 11:00 110 22
13. 7. 2020 10:00 110 22
13. 7. 2020 09:00 110 22
13. 7. 2020 08:00 110 22
13. 7. 2020 07:00 85 12
13. 7. 2020 06:00 85 12
13. 7. 2020 05:00 85 12
13. 7. 2020 04:00 82 11
13. 7. 2020 03:00 82 11
13. 7. 2020 02:00 82 11

H - water level, Q - discharge
Source data
Labe Basin Vltava Basin Povodí Moravy ČHMÚ